Time;durP1;ratioP1;P1;durP2;ratioP2;P2;SDS_P1;SDS_P2;PMS_P1;PMS_P2;Temp;Humidity;BMP_temperature;BMP_pressure;BME280_temperature;BME280_humidity;BME280_pressure;Samples;Min_cycle;Max_cycle;Signal;HPM_P1;HPM_P2
2023/10/25 00:02:24;;;;;;;11.80;2.95;;;8.90;99.90;;;;;;4972871;28;20038;-69
2023/10/25 00:04:54;;;;;;;8.70;2.78;;;8.90;99.90;;;;;;4983690;28;20789;-69
2023/10/25 00:07:20;;;;;;;8.65;3.03;;;8.90;99.90;;;;;;4986969;28;20042;-69
2023/10/25 00:09:46;;;;;;;8.90;3.17;;;8.90;99.90;;;;;;4988361;28;20040;-69
2023/10/25 00:12:11;;;;;;;6.63;3.13;;;8.80;99.90;;;;;;5006571;28;20040;-69
2023/10/25 00:14:37;;;;;;;7.95;3.08;;;8.80;99.90;;;;;;4986948;28;20109;-69
2023/10/25 00:17:02;;;;;;;9.38;3.30;;;8.80;99.90;;;;;;4986082;28;20026;-69
2023/10/25 00:19:28;;;;;;;10.55;3.00;;;8.80;99.90;;;;;;4987310;28;20072;-69
2023/10/25 00:21:53;;;;;;;8.38;2.80;;;8.80;99.90;;;;;;4986594;28;20030;-69
2023/10/25 00:24:19;;;;;;;6.45;3.30;;;8.80;99.90;;;;;;4988863;28;20038;-69
2023/10/25 00:26:44;;;;;;;8.43;3.22;;;8.80;99.90;;;;;;4987730;28;20038;-69
2023/10/25 00:29:10;;;;;;;7.20;2.80;;;8.70;99.90;;;;;;4988142;28;20033;-69
2023/10/25 00:31:35;;;;;;;7.93;2.83;;;8.70;99.90;;;;;;4983639;28;20040;-69
2023/10/25 00:34:01;;;;;;;10.68;3.00;;;8.70;99.90;;;;;;4987697;28;20035;-68
2023/10/25 00:36:26;;;;;;;7.30;3.30;;;8.70;99.90;;;;;;4986422;28;20045;-69
2023/10/25 00:38:52;;;;;;;6.22;2.88;;;8.70;99.90;;;;;;4985776;28;20019;-69
2023/10/25 00:41:17;;;;;;;9.13;2.53;;;8.70;99.90;;;;;;4985844;28;20031;-69
2023/10/25 00:43:43;;;;;;;8.60;3.60;;;8.60;99.90;;;;;;4988588;28;20045;-69
2023/10/25 00:46:16;;;;;;;7.82;2.88;;;8.60;99.90;;;;;;4995824;28;20517;-69
2023/10/25 00:48:47;;;;;;;8.77;3.00;;;8.60;99.90;;;;;;4990321;28;20019;-69
2023/10/25 00:51:14;;;;;;;8.65;3.63;;;8.60;99.90;;;;;;4990553;28;20023;-69
2023/10/25 00:53:49;;;;;;;8.60;3.13;;;8.60;99.90;;;;;;4990411;28;20035;-69
2023/10/25 00:56:16;;;;;;;8.63;3.55;;;8.60;99.90;;;;;;4990003;28;20053;-69
2023/10/25 00:58:45;;;;;;;8.57;3.17;;;8.60;99.90;;;;;;4990927;28;20026;-69
2023/10/25 01:01:11;;;;;;;7.32;3.78;;;8.50;99.90;;;;;;4989760;28;20432;-69
2023/10/25 01:03:37;;;;;;;11.38;3.55;;;8.50;99.90;;;;;;4988625;28;20105;-69
2023/10/25 01:06:03;;;;;;;5.75;3.38;;;8.50;99.90;;;;;;4996526;28;20038;-69
2023/10/25 01:08:29;;;;;;;7.50;3.17;;;8.50;99.90;;;;;;4986490;28;20402;-69
2023/10/25 01:10:54;;;;;;;11.27;3.70;;;8.40;99.90;;;;;;4990766;28;20057;-69
2023/10/25 01:13:21;;;;;;;8.75;3.58;;;8.40;99.90;;;;;;4988893;28;20439;-68
2023/10/25 01:15:47;;;;;;;9.05;3.97;;;8.40;99.90;;;;;;4990535;28;20069;-68
2023/10/25 01:18:14;;;;;;;11.05;3.55;;;8.30;99.90;;;;;;4989228;28;20026;-68
2023/10/25 01:20:41;;;;;;;8.98;3.70;;;8.30;99.90;;;;;;4988224;28;20038;-68
2023/10/25 01:23:07;;;;;;;10.13;4.25;;;8.30;99.90;;;;;;4988641;28;20069;-68
2023/10/25 01:25:33;;;;;;;8.13;3.60;;;8.30;99.90;;;;;;4990624;28;20074;-68
2023/10/25 01:27:59;;;;;;;11.75;4.22;;;8.30;99.90;;;;;;4986080;28;20455;-68
2023/10/25 01:30:25;;;;;;;11.63;3.75;;;8.30;99.90;;;;;;4989603;28;20605;-68
2023/10/25 01:32:51;;;;;;;7.43;3.28;;;8.30;99.90;;;;;;4986537;28;20119;-68
2023/10/25 01:35:16;;;;;;;13.02;3.72;;;8.20;99.90;;;;;;4988061;28;20478;-68
2023/10/25 01:37:42;;;;;;;8.85;3.67;;;8.20;99.90;;;;;;4991189;28;20161;-68
2023/10/25 01:40:08;;;;;;;8.93;3.05;;;8.20;99.90;;;;;;4989514;28;20031;-68
2023/10/25 01:42:33;;;;;;;11.57;3.53;;;8.20;99.90;;;;;;4989415;28;20066;-68
2023/10/25 01:45:01;;;;;;;7.63;3.13;;;8.20;99.90;;;;;;4989638;28;20053;-68
2023/10/25 01:47:27;;;;;;;6.32;3.15;;;8.20;99.90;;;;;;4989614;28;20076;-68
2023/10/25 01:49:52;;;;;;;7.40;3.47;;;8.10;99.90;;;;;;4991248;28;20075;-68
2023/10/25 01:52:18;;;;;;;9.57;3.05;;;8.10;99.90;;;;;;4986240;28;20105;-68
2023/10/25 01:54:46;;;;;;;9.00;2.80;;;8.10;99.90;;;;;;4988166;28;20027;-68
2023/10/25 01:57:12;;;;;;;7.78;2.97;;;8.10;99.90;;;;;;4984595;28;20092;-68
2023/10/25 01:59:37;;;;;;;8.27;3.50;;;8.10;99.90;;;;;;5010225;28;20514;-68
2023/10/25 02:02:03;;;;;;;9.10;3.30;;;8.10;99.90;;;;;;4990155;28;20026;-68
2023/10/25 02:04:28;;;;;;;6.50;3.30;;;8.10;99.90;;;;;;4989196;28;20022;-68
2023/10/25 02:06:54;;;;;;;10.50;3.38;;;8.10;99.90;;;;;;4988824;28;20038;-68
2023/10/25 02:09:20;;;;;;;8.85;3.33;;;8.10;99.90;;;;;;4989137;28;20387;-68
2023/10/25 02:11:46;;;;;;;6.60;2.53;;;8.10;99.90;;;;;;4995345;28;20030;-68
2023/10/25 02:14:11;;;;;;;13.60;2.83;;;8.10;99.90;;;;;;4988018;28;20074;-68
2023/10/25 02:16:37;;;;;;;7.43;2.60;;;8.10;99.90;;;;;;4988230;28;20496;-68
2023/10/25 02:19:02;;;;;;;11.23;3.10;;;8.00;99.90;;;;;;4990004;28;20034;-68
2023/10/25 02:21:28;;;;;;;11.70;3.00;;;8.10;99.90;;;;;;4989266;28;20056;-68
2023/10/25 02:23:54;;;;;;;6.78;2.75;;;8.10;99.90;;;;;;5003794;28;20478;-68
2023/10/25 02:26:19;;;;;;;8.70;2.92;;;8.00;99.90;;;;;;4997261;28;20053;-68
2023/10/25 02:28:45;;;;;;;10.15;2.83;;;8.00;99.90;;;;;;4989755;28;20478;-68
2023/10/25 02:31:10;;;;;;;8.45;2.83;;;8.00;99.90;;;;;;4990722;28;20045;-68
2023/10/25 02:33:36;;;;;;;10.48;2.88;;;8.00;99.90;;;;;;4990052;28;20042;-68
2023/10/25 02:36:02;;;;;;;7.32;2.53;;;8.00;99.90;;;;;;4987515;28;20390;-68
2023/10/25 02:38:27;;;;;;;7.78;2.55;;;7.90;99.90;;;;;;4988867;28;20026;-68
2023/10/25 02:40:53;;;;;;;7.95;2.80;;;7.90;99.90;;;;;;4989830;28;20041;-68
2023/10/25 02:43:19;;;;;;;6.68;2.42;;;7.90;99.90;;;;;;4987737;28;20042;-68
2023/10/25 02:45:44;;;;;;;9.40;2.42;;;7.80;99.90;;;;;;4988475;28;20039;-68
2023/10/25 02:48:13;;;;;;;15.43;6.10;;;7.80;99.90;;;;;;4987371;28;20026;-68
2023/10/25 02:50:39;;;;;;;14.40;5.35;;;7.80;99.90;;;;;;4988076;28;20033;-68
2023/10/25 02:53:04;;;;;;;8.05;3.88;;;7.80;99.90;;;;;;4988177;28;20050;-68
2023/10/25 02:55:31;;;;;;;12.75;4.90;;;7.80;99.90;;;;;;4989634;28;20073;-68
2023/10/25 02:57:57;;;;;;;9.57;4.47;;;7.80;99.90;;;;;;4989822;28;20099;-68
2023/10/25 03:00:23;;;;;;;19.88;12.38;;;7.80;99.90;;;;;;4983123;28;20362;-68
2023/10/25 03:02:49;;;;;;;13.05;9.75;;;7.80;99.90;;;;;;4988257;28;20038;-68
2023/10/25 03:05:14;;;;;;;19.65;14.93;;;7.90;99.90;;;;;;4988455;28;20034;-68
2023/10/25 03:07:40;;;;;;;18.83;16.88;;;7.80;99.90;;;;;;4990676;28;20474;-68
2023/10/25 03:10:06;;;;;;;18.75;13.40;;;7.80;99.90;;;;;;4988122;28;20477;-68
2023/10/25 03:12:32;;;;;;;18.02;16.13;;;7.80;99.90;;;;;;4988422;28;20550;-68
2023/10/25 03:14:58;;;;;;;19.75;14.65;;;7.80;99.90;;;;;;4989117;28;20034;-68
2023/10/25 03:17:24;;;;;;;14.15;11.10;;;7.70;99.90;;;;;;4986796;28;20080;-68
2023/10/25 03:19:49;;;;;;;16.23;11.32;;;7.70;99.90;;;;;;4990207;28;20039;-68
2023/10/25 03:22:15;;;;;;;18.83;14.13;;;7.70;99.90;;;;;;4996875;28;20034;-68
2023/10/25 03:24:40;;;;;;;23.98;18.08;;;7.70;99.90;;;;;;5015274;28;20029;-68
2023/10/25 03:27:07;;;;;;;24.08;16.60;;;7.70;99.90;;;;;;4986296;28;20043;-68
2023/10/25 03:29:36;;;;;;;21.92;19.40;;;7.60;99.90;;;;;;4987196;28;20041;-68
2023/10/25 03:32:02;;;;;;;18.00;13.90;;;7.60;99.90;;;;;;4988380;28;20160;-68
2023/10/25 03:34:28;;;;;;;15.40;13.70;;;7.60;99.90;;;;;;4984943;28;20109;-68
2023/10/25 03:36:53;;;;;;;17.25;10.05;;;7.60;99.90;;;;;;4988460;28;20129;-68
2023/10/25 03:39:19;;;;;;;15.55;11.27;;;7.60;99.90;;;;;;4987503;28;20029;-68
2023/10/25 03:41:45;;;;;;;16.95;9.98;;;7.60;99.90;;;;;;5000879;28;20396;-68
2023/10/25 03:44:11;;;;;;;22.05;16.45;;;7.60;99.90;;;;;;4987338;28;20034;-68
2023/10/25 03:46:37;;;;;;;25.45;20.80;;;7.50;99.90;;;;;;4997059;28;20179;-68
2023/10/25 03:49:04;;;;;;;22.98;14.32;;;7.60;99.90;;;;;;4988206;28;20042;-68
2023/10/25 03:51:31;;;;;;;22.98;14.27;;;7.60;99.90;;;;;;4984396;28;20804;-68
2023/10/25 03:53:56;;;;;;;16.33;10.50;;;7.50;99.90;;;;;;4984839;28;20039;-68
2023/10/25 03:56:22;;;;;;;13.32;9.07;;;7.50;99.90;;;;;;4988853;28;20022;-68
2023/10/25 03:58:48;;;;;;;14.07;7.45;;;7.50;99.90;;;;;;4987925;28;20535;-68
2023/10/25 04:01:13;;;;;;;15.35;7.72;;;7.50;99.90;;;;;;4985420;28;20026;-68
2023/10/25 04:03:39;;;;;;;16.13;7.35;;;7.50;99.90;;;;;;4988718;28;20026;-68
2023/10/25 04:06:08;;;;;;;12.85;8.70;;;7.50;99.90;;;;;;4988712;28;20549;-68
2023/10/25 04:08:34;;;;;;;17.95;10.95;;;7.50;99.90;;;;;;4988494;28;20062;-68
2023/10/25 04:11:00;;;;;;;16.30;11.20;;;7.50;99.90;;;;;;4985498;28;20092;-68
2023/10/25 04:13:26;;;;;;;20.75;14.50;;;7.60;99.90;;;;;;4996164;28;20467;-68
2023/10/25 04:15:56;;;;;;;22.15;15.52;;;7.60;99.90;;;;;;4986606;28;20095;-68
2023/10/25 04:18:23;;;;;;;19.33;13.10;;;7.60;99.90;;;;;;4989214;28;20087;-68
2023/10/25 04:20:49;;;;;;;21.98;13.07;;;7.70;99.90;;;;;;4983151;28;20054;-68
2023/10/25 04:23:14;;;;;;;22.35;15.05;;;7.70;99.90;;;;;;4983309;28;20061;-68
2023/10/25 04:25:40;;;;;;;16.85;11.88;;;7.80;99.90;;;;;;4984592;28;20045;-68
2023/10/25 04:28:05;;;;;;;20.33;13.25;;;7.80;99.90;;;;;;4989869;28;20514;-68
2023/10/25 04:30:33;;;;;;;12.55;8.25;;;7.90;99.90;;;;;;4987694;28;20038;-68
2023/10/25 04:32:58;;;;;;;14.38;7.50;;;7.90;99.90;;;;;;4987469;28;20023;-69
2023/10/25 04:35:24;;;;;;;15.48;6.90;;;7.90;99.90;;;;;;4987811;28;20033;-69
2023/10/25 04:37:49;;;;;;;12.50;6.07;;;8.00;99.90;;;;;;4987482;28;20109;-69
2023/10/25 04:40:15;;;;;;;11.18;5.93;;;8.00;99.90;;;;;;4982739;28;20037;-69
2023/10/25 04:42:40;;;;;;;11.27;6.15;;;8.10;99.90;;;;;;4985984;28;20062;-69
2023/10/25 04:45:07;;;;;;;11.88;6.20;;;8.10;99.90;;;;;;4987949;28;20035;-69
2023/10/25 04:47:32;;;;;;;11.68;6.05;;;8.20;99.90;;;;;;4991226;28;20066;-69
2023/10/25 04:50:01;;;;;;;13.02;6.43;;;8.20;99.90;;;;;;5014830;28;20032;-69
2023/10/25 04:52:26;;;;;;;11.63;5.88;;;8.20;99.90;;;;;;4988135;28;20038;-69
2023/10/25 04:54:52;;;;;;;9.85;5.80;;;8.20;99.90;;;;;;4983356;28;20482;-69
2023/10/25 04:57:18;;;;;;;19.27;9.70;;;8.30;99.90;;;;;;4987719;28;20066;-69
2023/10/25 04:59:43;;;;;;;18.63;7.32;;;8.30;99.90;;;;;;4985719;28;20101;-69
2023/10/25 05:02:09;;;;;;;13.07;6.60;;;8.40;99.90;;;;;;4985052;28;20032;-69
2023/10/25 05:04:34;;;;;;;13.70;8.40;;;8.40;99.90;;;;;;4985667;28;20391;-69
2023/10/25 05:07:00;;;;;;;15.63;10.05;;;8.40;99.90;;;;;;4994206;28;20080;-69
2023/10/25 05:09:26;;;;;;;14.25;8.57;;;8.40;99.90;;;;;;5009193;28;20030;-69
2023/10/25 05:11:56;;;;;;;15.32;8.85;;;8.40;99.90;;;;;;4988067;28;20035;-69
2023/10/25 05:14:22;;;;;;;18.15;11.38;;;8.40;99.90;;;;;;4987146;28;20023;-69
2023/10/25 05:16:48;;;;;;;13.45;8.98;;;8.50;99.90;;;;;;4985725;28;20097;-69
2023/10/25 05:19:14;;;;;;;12.73;7.70;;;8.50;99.90;;;;;;4987644;28;20488;-69
2023/10/25 05:21:42;;;;;;;12.38;7.70;;;8.50;99.90;;;;;;4975167;28;20065;-69
2023/10/25 05:24:08;;;;;;;18.48;11.82;;;8.50;99.90;;;;;;4985249;28;20050;-69
2023/10/25 05:26:34;;;;;;;18.50;12.32;;;8.50;99.90;;;;;;4980594;28;20072;-69
2023/10/25 05:29:00;;;;;;;12.82;11.45;;;8.60;99.90;;;;;;4985018;28;20087;-69
2023/10/25 05:31:27;;;;;;;13.68;7.97;;;8.50;99.90;;;;;;4987497;28;20033;-69
2023/10/25 05:33:53;;;;;;;12.00;7.00;;;8.60;99.90;;;;;;4988725;28;20029;-69
2023/10/25 05:36:19;;;;;;;13.00;6.28;;;8.60;99.90;;;;;;4985513;28;20096;-69
2023/10/25 05:38:45;;;;;;;11.77;5.65;;;8.60;99.90;;;;;;4985811;28;20034;-69
2023/10/25 05:41:22;;;;;;;8.32;5.35;;;8.70;99.90;;;;;;4990091;28;20092;-69
2023/10/25 05:43:57;;;;;;;11.70;6.18;;;8.70;99.90;;;;;;4989998;28;20050;-69
2023/10/25 05:46:23;;;;;;;12.00;6.00;;;8.70;99.90;;;;;;4979455;28;20084;-68
2023/10/25 05:48:48;;;;;;;13.50;5.25;;;8.70;99.90;;;;;;4980718;28;20030;-69
2023/10/25 05:51:14;;;;;;;8.07;5.50;;;8.80;99.90;;;;;;4983160;28;20394;-68
2023/10/25 05:53:40;;;;;;;8.90;6.10;;;8.80;99.90;;;;;;4984413;28;20035;-69
2023/10/25 05:56:06;;;;;;;10.48;5.47;;;8.80;99.90;;;;;;4988137;28;20563;-69
2023/10/25 05:58:32;;;;;;;28.02;5.53;;;8.80;99.90;;;;;;4990213;28;20034;-68
2023/10/25 06:01:01;;;;;;;7.95;4.93;;;8.90;99.90;;;;;;4990486;28;20116;-68
2023/10/25 06:03:28;;;;;;;9.50;4.88;;;8.80;99.90;;;;;;4989537;28;20027;-68
2023/10/25 06:05:56;;;;;;;8.35;4.57;;;8.90;99.90;;;;;;4989950;28;20038;-68
2023/10/25 06:08:22;;;;;;;11.30;4.78;;;8.90;99.90;;;;;;4990122;28;20038;-69
2023/10/25 06:10:48;;;;;;;5.72;3.63;;;8.90;99.90;;;;;;4991326;28;20042;-69
2023/10/25 06:13:15;;;;;;;8.43;4.10;;;9.00;99.90;;;;;;4987361;28;20457;-69
2023/10/25 06:15:40;;;;;;;6.97;3.53;;;9.00;99.90;;;;;;4985896;28;20121;-69
2023/10/25 06:18:07;;;;;;;7.70;3.00;;;9.00;99.90;;;;;;4988990;28;20144;-69
2023/10/25 06:20:34;;;;;;;7.90;3.33;;;9.10;99.90;;;;;;4984163;28;20068;-69
2023/10/25 06:23:00;;;;;;;7.85;3.15;;;9.10;99.90;;;;;;4985484;28;20062;-69
2023/10/25 06:25:27;;;;;;;8.27;3.60;;;9.10;99.90;;;;;;4992329;28;20068;-69
2023/10/25 06:27:53;;;;;;;5.28;2.70;;;9.10;99.90;;;;;;4988193;28;20077;-68
2023/10/25 06:30:18;;;;;;;12.45;2.95;;;9.20;99.90;;;;;;4986821;28;20033;-69
2023/10/25 06:32:44;;;;;;;11.15;3.33;;;9.20;99.90;;;;;;4989187;28;20022;-69
2023/10/25 06:35:09;;;;;;;7.30;3.10;;;9.20;99.90;;;;;;4990039;28;20022;-69
2023/10/25 06:37:35;;;;;;;10.75;3.53;;;9.20;99.90;;;;;;4989847;28;20033;-68
2023/10/25 06:40:01;;;;;;;8.50;3.40;;;9.20;99.90;;;;;;4983318;28;20072;-68
2023/10/25 06:42:27;;;;;;;9.65;3.70;;;9.30;99.90;;;;;;4989074;28;20047;-68
2023/10/25 06:44:53;;;;;;;9.48;3.05;;;9.30;99.90;;;;;;4989530;28;20087;-69
2023/10/25 06:47:18;;;;;;;8.45;2.88;;;9.30;99.90;;;;;;4984011;28;20503;-67
2023/10/25 06:49:44;;;;;;;7.20;2.72;;;9.30;99.90;;;;;;4988504;28;20033;-70
2023/10/25 06:52:10;;;;;;;7.03;2.88;;;9.30;99.90;;;;;;4987601;28;20070;-70
2023/10/25 06:54:36;;;;;;;6.03;2.38;;;9.30;99.90;;;;;;4988807;28;20023;-70
2023/10/25 06:57:02;;;;;;;7.10;2.88;;;9.30;99.90;;;;;;4985030;28;20516;-70
2023/10/25 06:59:28;;;;;;;9.70;2.53;;;9.30;99.90;;;;;;4985299;28;20023;-70
2023/10/25 07:02:15;;;;;;;12.25;2.72;;;9.40;99.90;;;;;;4979550;28;20034;-70
2023/10/25 07:04:42;;;;;;;7.35;2.28;;;9.40;99.90;;;;;;4988834;28;20126;-68
2023/10/25 07:07:09;;;;;;;7.60;2.28;;;9.40;99.90;;;;;;4978547;28;20278;-69
2023/10/25 07:09:35;;;;;;;5.15;2.33;;;9.40;99.90;;;;;;4986273;28;20062;-69
2023/10/25 07:12:00;;;;;;;8.70;2.50;;;9.50;99.90;;;;;;4989041;28;20035;-69
2023/10/25 07:14:26;;;;;;;4.70;2.10;;;9.50;99.90;;;;;;4985430;28;20030;-69
2023/10/25 07:16:52;;;;;;;4.15;2.38;;;9.50;99.90;;;;;;4983973;28;20026;-68
2023/10/25 07:19:17;;;;;;;9.30;2.72;;;9.60;99.90;;;;;;4982069;28;20038;-70
2023/10/25 07:21:43;;;;;;;6.63;2.10;;;9.60;99.90;;;;;;4980159;28;21184;-67
2023/10/25 07:24:08;;;;;;;6.60;2.17;;;9.60;99.90;;;;;;4978230;28;20534;-69
2023/10/25 07:26:34;;;;;;;5.30;2.22;;;9.70;99.90;;;;;;4979690;28;20034;-69
2023/10/25 07:29:00;;;;;;;6.95;1.88;;;9.70;99.90;;;;;;4986266;28;20409;-70
2023/10/25 07:31:25;;;;;;;6.30;2.85;;;9.80;99.90;;;;;;4990216;28;20030;-70
2023/10/25 07:33:51;;;;;;;8.02;2.38;;;9.80;99.90;;;;;;4984113;28;20055;-70
2023/10/25 07:36:16;;;;;;;4.57;1.60;;;9.80;99.90;;;;;;4978991;28;20414;-70
2023/10/25 07:38:42;;;;;;;8.57;2.40;;;9.80;99.90;;;;;;4978678;28;20397;-70
2023/10/25 07:41:07;;;;;;;10.98;2.67;;;9.80;99.90;;;;;;4980120;28;20030;-70
2023/10/25 07:43:33;;;;;;;7.25;2.13;;;9.80;99.90;;;;;;4980136;28;20061;-70
2023/10/25 07:45:58;;;;;;;5.68;2.35;;;9.80;99.90;;;;;;4976707;28;20045;-70
2023/10/25 07:48:24;;;;;;;6.50;2.30;;;9.80;99.90;;;;;;4983160;28;20390;-69
2023/10/25 07:50:49;;;;;;;8.40;2.83;;;9.90;99.90;;;;;;4988170;28;20053;-69
2023/10/25 07:53:15;;;;;;;5.13;1.88;;;9.90;99.90;;;;;;4986473;28;20026;-69
2023/10/25 07:55:41;;;;;;;8.25;2.47;;;9.90;99.90;;;;;;4989239;28;20041;-69
2023/10/25 07:58:07;;;;;;;7.15;2.45;;;9.90;99.90;;;;;;4980392;28;20037;-69
2023/10/25 08:00:34;;;;;;;7.50;2.92;;;9.90;99.90;;;;;;4976081;28;20050;-69
2023/10/25 08:02:59;;;;;;;5.30;2.20;;;9.90;99.90;;;;;;4994112;28;20492;-69
2023/10/25 08:05:25;;;;;;;6.35;2.00;;;9.90;99.90;;;;;;4980393;28;20034;-69
2023/10/25 08:07:51;;;;;;;12.82;2.58;;;9.90;99.90;;;;;;4979919;28;20553;-69
2023/10/25 08:10:17;;;;;;;3.80;2.08;;;9.90;99.90;;;;;;4980152;28;20027;-69
2023/10/25 08:12:42;;;;;;;4.95;2.83;;;9.90;99.90;;;;;;4985027;28;20475;-69
2023/10/25 08:15:08;;;;;;;5.13;2.45;;;9.90;99.90;;;;;;4980758;28;20106;-69
2023/10/25 08:17:34;;;;;;;4.40;2.50;;;10.00;99.90;;;;;;5001779;28;20022;-69
2023/10/25 08:19:59;;;;;;;6.55;3.08;;;10.00;99.90;;;;;;4980252;28;20026;-69
2023/10/25 08:22:25;;;;;;;7.25;3.10;;;10.10;99.90;;;;;;4989098;28;20027;-69
2023/10/25 08:24:51;;;;;;;5.78;3.08;;;10.10;99.90;;;;;;4986408;28;20795;-69
2023/10/25 08:27:18;;;;;;;9.13;3.00;;;10.20;99.90;;;;;;4986638;28;20096;-69
2023/10/25 08:29:44;;;;;;;8.30;2.92;;;10.10;99.90;;;;;;4980590;28;20019;-69
2023/10/25 08:32:09;;;;;;;8.82;3.38;;;10.20;99.90;;;;;;4986137;28;20128;-69
2023/10/25 08:34:35;;;;;;;7.70;3.08;;;10.20;99.90;;;;;;4983894;28;20059;-69
2023/10/25 08:37:00;;;;;;;7.35;3.05;;;10.30;99.90;;;;;;4988130;28;20030;-69
2023/10/25 08:39:26;;;;;;;10.15;3.08;;;10.40;99.90;;;;;;4986453;28;20027;-69
2023/10/25 08:41:52;;;;;;;5.45;3.33;;;10.30;99.90;;;;;;4986951;28;20065;-69
2023/10/25 08:44:19;;;;;;;5.78;3.17;;;10.40;99.90;;;;;;4981397;28;20507;-71
2023/10/25 08:46:47;;;;;;;7.75;3.60;;;10.50;99.90;;;;;;4984306;28;20053;-69
2023/10/25 08:49:12;;;;;;;9.68;4.38;;;10.50;99.90;;;;;;4984179;28;20027;-70
2023/10/25 08:51:43;;;;;;;11.25;4.95;;;10.50;99.90;;;;;;4988619;28;20041;-69
2023/10/25 08:54:09;;;;;;;9.65;4.80;;;10.50;99.90;;;;;;4982532;28;20029;-69
2023/10/25 08:56:35;;;;;;;9.48;4.75;;;10.50;99.90;;;;;;4986011;28;20113;-69
2023/10/25 08:59:00;;;;;;;7.57;4.38;;;10.50;99.90;;;;;;4991924;28;20103;-69
2023/10/25 09:01:27;;;;;;;12.57;4.85;;;10.50;99.90;;;;;;4988465;28;20547;-69
2023/10/25 09:03:53;;;;;;;8.00;4.35;;;10.50;99.90;;;;;;4985444;28;20019;-69
2023/10/25 09:06:26;;;;;;;7.25;3.75;;;10.60;99.90;;;;;;4986680;28;20080;-69
2023/10/25 09:09:02;;;;;;;8.50;4.03;;;10.60;99.90;;;;;;4993035;28;20030;-68
2023/10/25 09:11:43;;;;;;;7.63;3.10;;;10.60;99.90;;;;;;4987894;28;20420;-69
2023/10/25 09:14:10;;;;;;;8.98;3.33;;;10.70;99.90;;;;;;4988983;28;20030;-69
2023/10/25 09:16:40;;;;;;;5.70;2.95;;;10.70;99.90;;;;;;4990157;28;20052;-69
2023/10/25 09:19:06;;;;;;;5.80;3.03;;;10.80;99.90;;;;;;5029585;28;20109;-69
2023/10/25 09:21:32;;;;;;;10.80;3.47;;;10.80;99.90;;;;;;4991039;28;20030;-69
2023/10/25 09:24:08;;;;;;;9.38;3.47;;;10.80;99.90;;;;;;4991546;28;20033;-69
2023/10/25 09:26:39;;;;;;;5.22;2.80;;;10.80;99.90;;;;;;4988788;28;20041;-69
2023/10/25 09:29:05;;;;;;;7.65;2.97;;;10.90;99.90;;;;;;5006766;28;20026;-68
2023/10/25 09:31:31;;;;;;;6.57;3.20;;;10.90;99.90;;;;;;4988920;28;20058;-69
2023/10/25 09:33:58;;;;;;;8.52;3.70;;;10.90;99.90;;;;;;5012665;28;20055;-69
2023/10/25 09:36:24;;;;;;;6.32;3.22;;;10.90;99.90;;;;;;4989216;28;20033;-69
2023/10/25 09:38:51;;;;;;;10.52;3.20;;;10.90;99.90;;;;;;4989647;28;20068;-69
2023/10/25 09:41:17;;;;;;;6.15;3.08;;;11.00;99.90;;;;;;4984330;28;20474;-69
2023/10/25 09:43:50;;;;;;;5.53;2.63;;;10.90;99.90;;;;;;4988241;28;20042;-69
2023/10/25 09:46:17;;;;;;;4.97;2.90;;;11.00;99.90;;;;;;4988367;28;20034;-70
2023/10/25 09:48:54;;;;;;;7.80;3.03;;;11.00;99.90;;;;;;4983910;28;20027;-69
2023/10/25 09:52:00;;;;;;;5.03;2.88;;;11.00;99.90;;;;;;4988609;28;20183;-69
2023/10/25 09:54:32;;;;;;;7.85;2.50;;;10.90;99.90;;;;;;4985595;28;20502;-69
2023/10/25 09:56:59;;;;;;;8.27;2.58;;;10.90;99.90;;;;;;4987797;28;20394;-69
2023/10/25 09:59:27;;;;;;;5.88;2.67;;;10.90;99.90;;;;;;4989302;28;20030;-68
2023/10/25 10:01:55;;;;;;;6.50;2.97;;;10.90;99.90;;;;;;4989893;28;20034;-69
2023/10/25 10:04:52;;;;;;;7.20;2.95;;;10.90;99.90;;;;;;4981477;28;20057;-69
2023/10/25 10:07:44;;;;;;;7.45;2.95;;;10.90;99.90;;;;;;4981787;28;20482;-69
2023/10/25 10:10:31;;;;;;;5.70;3.00;;;11.00;99.90;;;;;;4982217;28;20026;-69
2023/10/25 10:12:56;;;;;;;8.50;2.67;;;10.90;99.90;;;;;;4983491;28;20030;-69
2023/10/25 10:15:56;;;;;;;7.10;2.20;;;10.90;99.90;;;;;;4988529;28;20022;-69
2023/10/25 10:18:22;;;;;;;4.30;2.17;;;11.00;99.90;;;;;;4980085;28;20101;-69
2023/10/25 10:21:01;;;;;;;7.72;2.30;;;10.90;99.90;;;;;;4981756;28;20118;-69
2023/10/25 10:23:40;;;;;;;5.22;2.45;;;11.00;99.90;;;;;;4989464;28;20033;-69
2023/10/25 10:26:08;;;;;;;5.70;2.05;;;11.00;99.90;;;;;;4988635;28;20029;-69
2023/10/25 10:28:42;;;;;;;5.50;2.60;;;11.00;99.90;;;;;;4984442;28;20646;-69
2023/10/25 10:31:12;;;;;;;8.25;2.53;;;11.00;99.90;;;;;;4985608;28;20490;-69
2023/10/25 10:33:49;;;;;;;6.15;2.20;;;11.00;99.90;;;;;;4989297;28;20038;-70
2023/10/25 10:36:30;;;;;;;4.60;1.55;;;11.00;99.90;;;;;;4981795;28;20076;-69
2023/10/25 10:39:16;;;;;;;7.38;2.58;;;11.00;99.90;;;;;;4982117;28;20030;-69
2023/10/25 10:41:44;;;;;;;6.53;2.10;;;11.00;99.90;;;;;;4981794;28;20052;-70
2023/10/25 10:44:11;;;;;;;7.35;2.47;;;11.00;99.90;;;;;;4990182;28;20056;-69
2023/10/25 10:46:44;;;;;;;7.80;1.80;;;11.00;99.90;;;;;;4989185;28;20038;-69
2023/10/25 10:49:13;;;;;;;8.43;2.42;;;11.00;99.90;;;;;;4987667;28;20486;-69
2023/10/25 10:51:39;;;;;;;9.40;2.42;;;11.00;99.90;;;;;;4987100;28;20026;-69
2023/10/25 10:54:06;;;;;;;5.25;2.15;;;11.00;99.90;;;;;;4986651;28;20042;-69
2023/10/25 10:56:33;;;;;;;6.43;2.33;;;10.90;99.90;;;;;;4995242;28;20418;-69
2023/10/25 10:59:00;;;;;;;5.90;2.40;;;10.90;99.90;;;;;;4988327;28;20113;-69
2023/10/25 11:01:26;;;;;;;6.60;2.20;;;10.90;99.90;;;;;;4986031;28;20041;-69
2023/10/25 11:04:01;;;;;;;8.48;3.67;;;10.90;99.90;;;;;;4988820;28;20027;-69
2023/10/25 11:06:27;;;;;;;9.50;3.88;;;11.00;99.90;;;;;;4986002;28;20046;-68
2023/10/25 11:08:52;;;;;;;6.85;4.30;;;10.90;99.90;;;;;;4984612;28;20031;-68
2023/10/25 11:11:21;;;;;;;9.98;4.85;;;10.90;99.90;;;;;;4981820;28;20027;-68
2023/10/25 11:13:49;;;;;;;7.68;4.78;;;10.90;99.90;;;;;;4980492;28;20482;-68
2023/10/25 11:16:14;;;;;;;7.90;4.22;;;10.90;99.90;;;;;;4988255;28;20486;-70
2023/10/25 11:18:40;;;;;;;5.75;4.22;;;10.90;99.90;;;;;;4989028;28;20052;-68
2023/10/25 11:21:05;;;;;;;8.90;4.90;;;10.90;99.90;;;;;;4988688;28;20063;-69
2023/10/25 11:23:31;;;;;;;11.82;4.97;;;10.90;99.90;;;;;;4986638;28;20482;-68
2023/10/25 11:25:56;;;;;;;7.97;5.30;;;10.90;99.90;;;;;;4980927;28;20113;-68
2023/10/25 11:28:23;;;;;;;9.35;5.50;;;10.90;99.90;;;;;;4991197;28;20114;-68
2023/10/25 11:30:50;;;;;;;11.13;6.05;;;10.90;99.90;;;;;;4983945;28;20034;-69
2023/10/25 11:33:16;;;;;;;13.38;5.70;;;10.90;99.90;;;;;;4986826;28;20486;-68
2023/10/25 11:35:43;;;;;;;12.20;5.50;;;10.90;99.90;;;;;;4988165;28;20066;-68
2023/10/25 11:38:12;;;;;;;12.15;5.82;;;10.90;99.90;;;;;;4985057;28;20025;-69
2023/10/25 11:40:41;;;;;;;9.95;5.63;;;10.90;99.90;;;;;;4983661;28;20033;-70
2023/10/25 11:43:07;;;;;;;10.88;4.45;;;10.90;99.90;;;;;;4984287;28;20100;-69
2023/10/25 11:45:34;;;;;;;15.38;5.15;;;10.90;99.90;;;;;;4986860;28;20436;-69
2023/10/25 11:47:59;;;;;;;8.45;4.75;;;10.90;99.90;;;;;;4988440;28;20114;-69
2023/10/25 11:50:25;;;;;;;9.43;4.65;;;11.00;99.90;;;;;;4986163;28;20105;-70
2023/10/25 11:52:50;;;;;;;7.95;3.70;;;11.00;99.90;;;;;;4994886;28;20032;-70
2023/10/25 11:55:16;;;;;;;11.65;3.70;;;11.00;99.90;;;;;;4987460;28;20022;-68
2023/10/25 11:57:42;;;;;;;7.70;4.13;;;11.10;99.90;;;;;;4986137;28;20034;-69
2023/10/25 12:00:08;;;;;;;8.00;3.90;;;11.10;99.90;;;;;;4985359;28;20158;-69
2023/10/25 12:02:35;;;;;;;11.07;3.72;;;11.10;99.90;;;;;;4988766;28;20057;-69
2023/10/25 12:05:01;;;;;;;7.10;3.70;;;11.20;99.90;;;;;;4985213;28;20026;-69
2023/10/25 12:07:27;;;;;;;12.75;4.25;;;11.20;99.90;;;;;;4985702;28;20034;-69
2023/10/25 12:09:53;;;;;;;8.63;4.28;;;11.20;99.90;;;;;;4984524;28;20027;-70
2023/10/25 12:12:20;;;;;;;8.48;4.32;;;11.20;99.90;;;;;;4987443;28;20397;-69
2023/10/25 12:14:45;;;;;;;7.32;4.07;;;11.10;99.90;;;;;;4985923;28;20536;-70
2023/10/25 12:17:11;;;;;;;8.45;4.00;;;11.20;99.90;;;;;;4994011;28;20028;-68
2023/10/25 12:19:39;;;;;;;9.35;3.80;;;11.20;99.90;;;;;;4982012;28;20034;-68
2023/10/25 12:22:07;;;;;;;8.50;4.07;;;11.30;99.90;;;;;;4985107;28;20054;-68
2023/10/25 12:24:34;;;;;;;9.40;3.70;;;11.30;99.90;;;;;;4985654;28;20050;-68
2023/10/25 12:27:00;;;;;;;11.48;4.35;;;11.30;99.90;;;;;;4984491;28;20042;-68
2023/10/25 12:29:26;;;;;;;7.38;3.65;;;11.30;99.90;;;;;;4984539;28;20034;-68
2023/10/25 12:31:51;;;;;;;11.68;4.45;;;11.30;99.90;;;;;;4985624;28;20038;-68
2023/10/25 12:34:17;;;;;;;9.82;4.13;;;11.30;99.90;;;;;;5008490;28;20094;-68
2023/10/25 12:36:42;;;;;;;6.95;3.25;;;11.30;99.90;;;;;;4988923;28;20043;-68
2023/10/25 12:39:08;;;;;;;5.32;3.92;;;11.20;99.90;;;;;;4975602;28;20027;-68
2023/10/25 12:41:33;;;;;;;6.45;4.15;;;11.30;99.90;;;;;;4983348;28;20340;-69
2023/10/25 12:44:01;;;;;;;11.00;4.28;;;11.20;99.90;;;;;;4984837;28;20103;-68
2023/10/25 12:46:27;;;;;;;6.55;4.70;;;11.20;99.90;;;;;;4989197;28;20038;-69
2023/10/25 12:48:52;;;;;;;9.07;4.57;;;11.20;99.90;;;;;;4995032;28;20031;-69